createdAt,value
2023-02-01T00:03:38.467Z,4.65
2023-02-01T00:11:14.255Z,4.63
2023-02-01T00:18:51.956Z,4.67
2023-02-01T00:26:32.393Z,4.68
2023-02-01T00:34:09.915Z,4.69
2023-02-01T00:41:44.545Z,4.58
2023-02-01T00:49:19.938Z,4.49
2023-02-01T00:56:53.961Z,4.50
2023-02-01T01:04:29.156Z,4.38
2023-02-01T01:12:03.934Z,4.27
2023-02-01T01:19:39.161Z,4.32
2023-02-01T01:27:13.109Z,4.33
2023-02-01T01:34:48.294Z,4.45
2023-02-01T01:42:22.259Z,4.52
2023-02-01T01:49:57.546Z,4.56
2023-02-01T01:57:36.111Z,4.50
2023-02-01T02:05:12.780Z,4.55
2023-02-01T02:12:49.988Z,4.55
2023-02-01T02:20:56.168Z,4.55
2023-02-01T02:28:55.482Z,4.50
2023-02-01T02:36:42.007Z,4.51
2023-02-01T02:44:40.816Z,4.53
2023-02-01T02:52:38.755Z,4.59
2023-02-01T03:00:34.158Z,4.65
2023-02-01T03:08:14.428Z,4.67
2023-02-01T03:15:53.806Z,4.63
2023-02-01T03:23:33.138Z,4.67
2023-02-01T03:31:07.717Z,4.71
2023-02-01T03:38:46.544Z,4.67
2023-02-01T03:46:29.026Z,4.69
2023-02-01T03:54:07.328Z,4.69
2023-02-01T04:01:41.669Z,4.70
2023-02-01T04:09:17.566Z,4.77
2023-02-01T04:16:51.445Z,4.81
2023-02-01T04:24:27.016Z,4.87
2023-02-01T04:32:01.379Z,4.91
2023-02-01T04:39:36.751Z,4.98
2023-02-01T04:47:11.446Z,5.04
2023-02-01T04:54:46.494Z,5.09
2023-02-01T05:02:20.241Z,5.09
2023-02-01T05:09:55.364Z,5.11
2023-02-01T05:17:29.392Z,5.16
2023-02-01T05:25:06.791Z,5.14
2023-02-01T05:32:42.082Z,5.18
2023-02-01T05:40:17.508Z,5.18
2023-02-01T05:47:51.349Z,5.17
2023-02-01T05:55:26.594Z,5.16
2023-02-01T06:03:00.681Z,5.11
2023-02-01T06:10:35.888Z,5.07
2023-02-01T06:18:09.808Z,5.06
2023-02-01T06:25:46.352Z,5.06
2023-02-01T06:33:20.843Z,5.05
2023-02-01T06:40:57.526Z,5.02
2023-02-01T06:48:31.464Z,4.98
2023-02-01T06:56:07.246Z,5.01
2023-02-01T07:03:41.099Z,5.01
2023-02-01T07:11:17.687Z,5.03
2023-02-01T07:18:53.315Z,5.06
2023-02-01T07:26:28.569Z,5.00
2023-02-01T07:34:03.888Z,5.00
2023-02-01T07:41:39.390Z,4.92
2023-02-01T07:49:15.219Z,4.76
2023-02-01T07:56:50.652Z,4.61
2023-02-01T08:04:24.483Z,4.53
2023-02-01T08:11:59.935Z,4.34
2023-02-01T08:19:33.731Z,4.28
2023-02-01T08:27:09.237Z,4.27
2023-02-01T08:34:43.472Z,4.25
2023-02-01T08:42:46.858Z,4.30
2023-02-01T08:50:22.549Z,4.29
2023-02-01T08:57:58.028Z,4.26
2023-02-01T09:05:47.524Z,4.18
2023-02-01T09:13:23.907Z,4.17
2023-02-01T09:20:57.673Z,4.14
2023-02-01T09:28:33.355Z,4.17
2023-02-01T09:36:08.236Z,4.13
2023-02-01T09:43:50.918Z,4.14
2023-02-01T09:51:29.974Z,4.22
2023-02-01T09:59:16.526Z,4.21
2023-02-01T10:07:03.486Z,4.26
2023-02-01T10:14:58.094Z,4.25
2023-02-01T10:23:04.934Z,4.30
2023-02-01T10:30:44.374Z,4.35
2023-02-01T10:38:26.515Z,4.40
2023-02-01T10:46:01.835Z,4.43
2023-02-01T10:53:40.948Z,4.48
2023-02-01T11:01:22.740Z,4.55
2023-02-01T11:08:59.065Z,4.82
2023-02-01T11:16:37.028Z,4.97
2023-02-01T11:24:21.328Z,5.07
2023-02-01T11:31:57.597Z,5.38
2023-02-01T11:39:33.407Z,5.56
2023-02-01T11:47:27.035Z,5.65
2023-02-01T11:55:23.660Z,5.61
2023-02-01T12:03:21.613Z,5.75
2023-02-01T12:11:23.684Z,5.96
2023-02-01T12:19:20.338Z,6.09
2023-02-01T12:27:05.023Z,6.13
2023-02-01T12:35:07.260Z,6.19
2023-02-01T12:42:45.599Z,6.19
2023-02-01T12:50:26.866Z,6.19
2023-02-01T12:58:15.056Z,6.20
2023-02-01T13:05:56.231Z,6.16
2023-02-01T13:13:34.654Z,6.18
2023-02-01T13:21:16.287Z,6.21
2023-02-01T13:28:53.531Z,6.20
2023-02-01T13:36:49.677Z,6.21
2023-02-01T13:44:30.155Z,6.23
2023-02-01T13:52:06.792Z,6.25
2023-02-01T14:00:12.232Z,6.29
2023-02-01T14:08:16.025Z,6.29
2023-02-01T14:16:14.735Z,6.26
2023-02-01T14:23:57.331Z,6.25
2023-02-01T14:32:07.264Z,6.25
2023-02-01T14:39:56.106Z,6.28
2023-02-01T14:47:33.709Z,6.32
2023-02-01T14:55:15.347Z,6.34
2023-02-01T15:02:51.713Z,6.12
2023-02-01T15:10:27.324Z,5.71
2023-02-01T15:18:02.149Z,5.51
2023-02-01T15:25:39.959Z,5.16
2023-02-01T15:33:19.322Z,4.97
2023-02-01T15:40:59.872Z,4.88
2023-02-01T15:48:39.348Z,4.83
2023-02-01T15:56:15.956Z,4.69
2023-02-01T16:03:51.557Z,4.18
2023-02-01T16:11:31.445Z,3.70
2023-02-01T16:19:05.625Z,3.30
2023-02-01T16:26:41.118Z,2.96
2023-02-01T16:34:18.092Z,2.99
2023-02-01T16:41:53.391Z,3.04
2023-02-01T16:49:28.619Z,3.03
2023-02-01T16:57:03.872Z,3.10
2023-02-01T17:04:37.894Z,3.15
2023-02-01T17:12:22.790Z,3.23
2023-02-01T17:19:56.786Z,3.33
2023-02-01T17:27:31.905Z,3.45
2023-02-01T17:35:06.232Z,3.52
2023-02-01T17:42:41.434Z,3.59
2023-02-01T17:50:15.963Z,3.66
2023-02-01T17:57:51.563Z,3.72
2023-02-01T18:05:30.222Z,3.75
2023-02-01T18:13:05.459Z,3.81
2023-02-01T18:20:43.503Z,3.84
2023-02-01T18:28:20.206Z,3.88
2023-02-01T18:43:51.344Z,3.96
2023-02-01T18:51:25.391Z,3.96
2023-02-01T18:59:01.145Z,3.98
2023-02-01T19:06:35.975Z,4.03
2023-02-01T19:14:11.248Z,4.04
2023-02-01T19:21:45.789Z,4.08
2023-02-01T19:29:20.813Z,4.11
2023-02-01T19:36:55.214Z,4.14
2023-02-01T19:44:30.236Z,4.10
2023-02-01T19:52:04.832Z,4.05
2023-02-01T19:59:40.144Z,4.03
2023-02-01T20:07:13.232Z,4.02
2023-02-01T20:14:48.485Z,4.05
2023-02-01T20:22:22.884Z,4.01
2023-02-01T20:29:59.537Z,3.97
2023-02-01T20:37:37.648Z,3.92
2023-02-01T20:45:12.997Z,3.92
2023-02-01T20:52:46.856Z,3.87
2023-02-01T21:00:23.776Z,3.85
2023-02-01T21:07:57.607Z,3.79
2023-02-01T21:15:34.714Z,3.73
2023-02-01T21:23:08.991Z,3.69
2023-02-01T21:30:44.296Z,3.68
2023-02-01T21:38:18.091Z,3.71
2023-02-01T21:45:53.736Z,3.72
2023-02-01T21:53:27.599Z,3.71
2023-02-01T22:01:02.873Z,3.72
2023-02-01T22:08:38.256Z,3.75
2023-02-01T22:16:18.153Z,3.77
2023-02-01T22:23:54.249Z,3.80
2023-02-01T22:31:29.623Z,3.85
2023-02-01T22:39:03.812Z,3.87
2023-02-01T22:46:38.999Z,3.95
2023-02-01T22:54:18.823Z,3.96
2023-02-01T23:01:53.952Z,3.95
2023-02-01T23:09:27.929Z,4.02
2023-02-01T23:17:03.102Z,4.02
2023-02-01T23:24:37.253Z,4.07
2023-02-01T23:32:12.456Z,4.14
2023-02-01T23:39:46.218Z,4.27
2023-02-01T23:47:21.413Z,4.30
2023-02-01T23:54:55.182Z,4.32
